This is the latest recevied weather packets stored in our database for station/object KG7DQI-13. If no packets are shown the sender has not sent any weather packets the latest 10 day(s).
| Time | Temp. | Humidity | Pressure | Rain* | Wind** | Luminosity | Snow |
|---|---|---|---|---|---|---|---|
| 1788491661 | 12.22° C | 62% | 908.9 hPa | 0 mm | - | 0 W/m² | - |
| 1788489016 | 13.33° C | 58% | 908.5 hPa | 0 mm | - | 0 W/m² | - |
| 1788488096 | 13.89° C | 56% | 908.3 hPa | 0 mm | - | 9 W/m² | - |
| 1788485401 | 14.44° C | 52% | 908 hPa | 0 mm | - | 39 W/m² | - |
| 1788483555 | 15.56° C | 49% | 908.1 hPa | 0 mm | - | 35 W/m² | - |
| 1788482630 | 15.56° C | 47% | 908 hPa | 0 mm | - | 67 W/m² | - |
| 1788479899 | 15.56° C | 47% | 907.9 hPa | 0 mm | - | 113 W/m² | - |
| 1788478973 | 15.56° C | 49% | 908 hPa | 0 mm | - | 181 W/m² | - |
| 1788478088 | 15.56° C | 49% | 908.1 hPa | 0 mm | - | 128 W/m² | - |
| 1788476296 | 15.56° C | 49% | 908.4 hPa | 0 mm | - | 128 W/m² | - |
| 1788475397 | 16.67° C | 50% | 908.5 hPa | 0 mm | - | 163 W/m² | - |
| 1788473647 | 15° C | 54% | 908.8 hPa | 0 mm | - | 318 W/m² | - |
| 1788471824 | 15° C | 54% | 909.2 hPa | 0 mm | - | 258 W/m² | - |
| 1788470059 | 14.44° C | 55% | 909.4 hPa | 0 mm | - | 457 W/m² | - |
| 1788469139 | 13.89° C | 58% | 909.4 hPa | 0 mm | - | 373 W/m² | - |
| 1788468220 | 13.89° C | 57% | 909.3 hPa | 0 mm | - | 397 W/m² | - |
| 1788466473 | 13.33° C | 61% | 909.7 hPa | 0 mm | - | 329 W/m² | - |
| 1788465619 | 13.33° C | 63% | 909.8 hPa | 0 mm | - | 295 W/m² | - |
| 1788463793 | 12.78° C | 66% | 910 hPa | 0 mm | - | 288 W/m² | - |
| 1788461008 | 12.22° C | 71% | 910.2 hPa | 0 mm | - | 260 W/m² | - |
| 1788458356 | 11.67° C | 70% | 910.1 hPa | 0 mm | - | 221 W/m² | - |
| 1788457419 | 11.67° C | 69% | 910.1 hPa | 0 mm | - | 232 W/m² | - |
| 1788455595 | 11.11° C | 71% | 910.3 hPa | 0 mm | - | 153 W/m² | - |
| 1788449343 | 6.67° C | 92% | 910.3 hPa | 0 mm | - | 109 W/m² | - |
| 1788448396 | 5.56° C | 93% | 910.2 hPa | 0 mm | - | 72 W/m² | - |
* Rain latest hour (hover to see other rain measurements)
** Current wind speed in m/s (hover to see current wind gust speed)